Decoded Metar for OIBJ ( in _UNIDENTIFIED) (IATA:N/A) | Meteo·Mobile Aviation Weather
aviador You're here:

OIBJ Decoded Metar

in _UNIDENTIFIED
Report Time2018-11-21 07:00:00
UTC Time2018-11-21 07:50:57
Flight Rules vfr VFR
WindCalm
Visibility9999 m
Phenomena:N/A
Clouds:N/A
Expected CloudBase > 2,800 ft AGL from Temp-Dew spread
CeilingNone
Temp19°C
Dew Point12°C (64% RH)
QNH1021 hPa
Raw Report
METAR OIBJ 210700Z 00000KT CAVOK 19/12 Q1021=

Extra information for OIBJ:More info

Metar Taf Metar & Taf Last 4 Metars F.Rules Stats Wind Profile Meteogram Temp Stats Metar ALERT Operation Metar Decoded Social comments